sensor_id;sensor_type;location;lat;lon;timestamp;pressure;altitude;pressure_sealevel;temperature;humidity
41250;BME280;26984;59.928;30.306;2023-07-29T00:01:36;100023.00;;;15.14;100.00
41250;BME280;26984;59.928;30.306;2023-07-29T00:04:09;100020.25;;;15.08;100.00
41250;BME280;26984;59.928;30.306;2023-07-29T00:06:37;100025.59;;;14.98;100.00
41250;BME280;26984;59.928;30.306;2023-07-29T00:09:06;100015.22;;;14.90;100.00
41250;BME280;26984;59.928;30.306;2023-07-29T00:11:35;100022.03;;;14.93;100.00
41250;BME280;26984;59.928;30.306;2023-07-29T00:14:02;100011.16;;;14.88;100.00
41250;BME280;26984;59.928;30.306;2023-07-29T00:16:30;100017.09;;;14.84;100.00
41250;BME280;26984;59.928;30.306;2023-07-29T00:18:58;100016.72;;;14.76;100.00
41250;BME280;26984;59.928;30.306;2023-07-29T00:21:27;100019.72;;;14.74;100.00
41250;BME280;26984;59.928;30.306;2023-07-29T00:23:56;100028.06;;;14.68;100.00
41250;BME280;26984;59.928;30.306;2023-07-29T00:26:24;100020.94;;;14.61;100.00
41250;BME280;26984;59.928;30.306;2023-07-29T00:28:54;100029.16;;;14.67;100.00
41250;BME280;26984;59.928;30.306;2023-07-29T00:31:22;100020.19;;;14.66;100.00
41250;BME280;26984;59.928;30.306;2023-07-29T00:33:50;100024.84;;;14.71;100.00
41250;BME280;26984;59.928;30.306;2023-07-29T00:36:18;100023.53;;;14.78;100.00
41250;BME280;26984;59.928;30.306;2023-07-29T00:38:48;100021.63;;;14.79;100.00
41250;BME280;26984;59.928;30.306;2023-07-29T00:41:15;100026.56;;;14.82;100.00
41250;BME280;26984;59.928;30.306;2023-07-29T00:43:43;100027.41;;;14.88;100.00
41250;BME280;26984;59.928;30.306;2023-07-29T00:46:10;100036.09;;;14.90;100.00
41250;BME280;26984;59.928;30.306;2023-07-29T00:48:39;100036.38;;;14.88;100.00
41250;BME280;26984;59.928;30.306;2023-07-29T00:51:07;100033.31;;;14.79;100.00
41250;BME280;26984;59.928;30.306;2023-07-29T00:53:35;100037.91;;;14.79;100.00
41250;BME280;26984;59.928;30.306;2023-07-29T00:56:04;100033.59;;;14.83;100.00
41250;BME280;26984;59.928;30.306;2023-07-29T00:58:31;100048.50;;;14.80;100.00
41250;BME280;26984;59.928;30.306;2023-07-29T01:00:59;100043.53;;;14.72;100.00
41250;BME280;26984;59.928;30.306;2023-07-29T01:03:28;100037.59;;;14.75;100.00
41250;BME280;26984;59.928;30.306;2023-07-29T01:05:59;100037.22;;;14.61;100.00
41250;BME280;26984;59.928;30.306;2023-07-29T01:08:36;100058.34;;;14.59;100.00
41250;BME280;26984;59.928;30.306;2023-07-29T01:11:16;100052.34;;;14.57;100.00
41250;BME280;26984;59.928;30.306;2023-07-29T01:13:53;100056.75;;;14.64;100.00
41250;BME280;26984;59.928;30.306;2023-07-29T01:16:29;100060.50;;;14.57;100.00
41250;BME280;26984;59.928;30.306;2023-07-29T01:18:59;100063.47;;;14.56;100.00
41250;BME280;26984;59.928;30.306;2023-07-29T01:21:27;100062.72;;;14.38;100.00
41250;BME280;26984;59.928;30.306;2023-07-29T01:23:59;100069.72;;;14.34;100.00
41250;BME280;26984;59.928;30.306;2023-07-29T01:26:28;100061.63;;;14.40;100.00
41250;BME280;26984;59.928;30.306;2023-07-29T01:28:55;100058.88;;;14.34;100.00
41250;BME280;26984;59.928;30.306;2023-07-29T01:31:27;100065.81;;;14.25;100.00
41250;BME280;26984;59.928;30.306;2023-07-29T01:34:06;100058.31;;;14.32;100.00
41250;BME280;26984;59.928;30.306;2023-07-29T01:36:37;100060.72;;;14.29;100.00
41250;BME280;26984;59.928;30.306;2023-07-29T01:39:08;100060.72;;;14.29;100.00
41250;BME280;26984;59.928;30.306;2023-07-29T01:41:39;100069.94;;;14.28;100.00
41250;BME280;26984;59.928;30.306;2023-07-29T01:44:09;100065.06;;;14.30;100.00
41250;BME280;26984;59.928;30.306;2023-07-29T01:46:37;100075.06;;;14.29;100.00
41250;BME280;26984;59.928;30.306;2023-07-29T01:49:06;100080.50;;;14.29;100.00
41250;BME280;26984;59.928;30.306;2023-07-29T01:51:34;100074.94;;;14.41;100.00
41250;BME280;26984;59.928;30.306;2023-07-29T01:54:02;100068.44;;;14.42;100.00
41250;BME280;26984;59.928;30.306;2023-07-29T01:56:31;100064.41;;;14.45;100.00
41250;BME280;26984;59.928;30.306;2023-07-29T01:59:00;100069.72;;;14.56;100.00
41250;BME280;26984;59.928;30.306;2023-07-29T02:01:28;100058.81;;;14.51;100.00
41250;BME280;26984;59.928;30.306;2023-07-29T02:03:57;100074.25;;;14.51;100.00
41250;BME280;26984;59.928;30.306;2023-07-29T02:06:25;100056.66;;;14.53;100.00
41250;BME280;26984;59.928;30.306;2023-07-29T02:09:05;100066.22;;;14.61;100.00
41250;BME280;26984;59.928;30.306;2023-07-29T02:11:35;100069.19;;;14.59;100.00
41250;BME280;26984;59.928;30.306;2023-07-29T02:14:04;100068.91;;;14.56;100.00
41250;BME280;26984;59.928;30.306;2023-07-29T02:16:37;100070.47;;;14.52;100.00
41250;BME280;26984;59.928;30.306;2023-07-29T02:19:05;100079.22;;;14.59;100.00
41250;BME280;26984;59.928;30.306;2023-07-29T02:21:32;100079.53;;;14.63;100.00
41250;BME280;26984;59.928;30.306;2023-07-29T02:24:00;100077.38;;;14.65;100.00
41250;BME280;26984;59.928;30.306;2023-07-29T02:26:29;100080.06;;;14.65;100.00
41250;BME280;26984;59.928;30.306;2023-07-29T02:28:58;100079.84;;;14.66;100.00
41250;BME280;26984;59.928;30.306;2023-07-29T02:31:25;100085.91;;;14.78;100.00
41250;BME280;26984;59.928;30.306;2023-07-29T02:33:54;100088.09;;;14.81;100.00
41250;BME280;26984;59.928;30.306;2023-07-29T02:36:22;100089.50;;;14.84;100.00
41250;BME280;26984;59.928;30.306;2023-07-29T02:38:57;100089.72;;;14.82;100.00
41250;BME280;26984;59.928;30.306;2023-07-29T02:41:32;100094.94;;;14.89;100.00
41250;BME280;26984;59.928;30.306;2023-07-29T02:44:02;100091.13;;;14.85;100.00
41250;BME280;26984;59.928;30.306;2023-07-29T02:46:30;100092.75;;;14.86;100.00
41250;BME280;26984;59.928;30.306;2023-07-29T02:49:03;100093.06;;;14.90;100.00
41250;BME280;26984;59.928;30.306;2023-07-29T02:51:31;100092.25;;;14.89;100.00
41250;BME280;26984;59.928;30.306;2023-07-29T02:53:58;100102.00;;;14.90;100.00
41250;BME280;26984;59.928;30.306;2023-07-29T02:56:26;100094.72;;;14.91;100.00
41250;BME280;26984;59.928;30.306;2023-07-29T02:58:54;100098.16;;;14.86;100.00
41250;BME280;26984;59.928;30.306;2023-07-29T03:01:33;100098.16;;;14.86;100.00
41250;BME280;26984;59.928;30.306;2023-07-29T03:04:01;100103.28;;;14.82;100.00
41250;BME280;26984;59.928;30.306;2023-07-29T03:06:29;100104.88;;;14.78;100.00
41250;BME280;26984;59.928;30.306;2023-07-29T03:08:56;100108.69;;;14.77;100.00
41250;BME280;26984;59.928;30.306;2023-07-29T03:11:24;100114.34;;;14.76;100.00
41250;BME280;26984;59.928;30.306;2023-07-29T03:13:52;100121.66;;;14.75;100.00
41250;BME280;26984;59.928;30.306;2023-07-29T03:16:20;100116.50;;;14.74;100.00
41250;BME280;26984;59.928;30.306;2023-07-29T03:18:56;100111.69;;;14.81;100.00
41250;BME280;26984;59.928;30.306;2023-07-29T03:21:23;100113.94;;;14.89;100.00
41250;BME280;26984;59.928;30.306;2023-07-29T03:23:51;100112.00;;;14.84;100.00
41250;BME280;26984;59.928;30.306;2023-07-29T03:26:21;100115.53;;;14.85;100.00
41250;BME280;26984;59.928;30.306;2023-07-29T03:28:49;100113.41;;;14.92;100.00
41250;BME280;26984;59.928;30.306;2023-07-29T03:31:19;100112.09;;;14.95;100.00
41250;BME280;26984;59.928;30.306;2023-07-29T03:33:47;100111.03;;;15.01;100.00
41250;BME280;26984;59.928;30.306;2023-07-29T03:36:16;100105.97;;;15.09;100.00
41250;BME280;26984;59.928;30.306;2023-07-29T03:38:45;100101.94;;;15.12;100.00
41250;BME280;26984;59.928;30.306;2023-07-29T03:41:13;100108.84;;;15.30;100.00
41250;BME280;26984;59.928;30.306;2023-07-29T03:43:41;100111.66;;;15.45;100.00
41250;BME280;26984;59.928;30.306;2023-07-29T03:46:10;100109.53;;;15.52;100.00
41250;BME280;26984;59.928;30.306;2023-07-29T03:48:40;100111.16;;;15.53;100.00
41250;BME280;26984;59.928;30.306;2023-07-29T03:51:10;100108.22;;;15.55;100.00
41250;BME280;26984;59.928;30.306;2023-07-29T03:53:40;100111.75;;;15.61;100.00
41250;BME280;26984;59.928;30.306;2023-07-29T03:56:08;100116.75;;;15.74;100.00
41250;BME280;26984;59.928;30.306;2023-07-29T03:58:36;100117.34;;;15.76;100.00
41250;BME280;26984;59.928;30.306;2023-07-29T04:01:05;100122.03;;;15.91;100.00
41250;BME280;26984;59.928;30.306;2023-07-29T04:03:33;100117.97;;;15.98;100.00
41250;BME280;26984;59.928;30.306;2023-07-29T04:06:01;100124.53;;;16.02;100.00
41250;BME280;26984;59.928;30.306;2023-07-29T04:08:29;100116.41;;;16.13;100.00
41250;BME280;26984;59.928;30.306;2023-07-29T04:11:00;100122.09;;;16.11;100.00
41250;BME280;26984;59.928;30.306;2023-07-29T04:13:28;100129.53;;;16.26;100.00
41250;BME280;26984;59.928;30.306;2023-07-29T04:15:55;100130.88;;;16.23;100.00
41250;BME280;26984;59.928;30.306;2023-07-29T04:18:24;100128.19;;;16.34;100.00
41250;BME280;26984;59.928;30.306;2023-07-29T04:20:53;100129.31;;;16.48;100.00
41250;BME280;26984;59.928;30.306;2023-07-29T04:23:21;100124.44;;;16.60;100.00
41250;BME280;26984;59.928;30.306;2023-07-29T04:25:54;100129.91;;;16.65;100.00
41250;BME280;26984;59.928;30.306;2023-07-29T04:28:24;100128.25;;;16.64;100.00
41250;BME280;26984;59.928;30.306;2023-07-29T04:30:51;100122.31;;;16.72;100.00
41250;BME280;26984;59.928;30.306;2023-07-29T04:33:19;100120.44;;;16.78;100.00
41250;BME280;26984;59.928;30.306;2023-07-29T04:35:47;100125.34;;;16.86;100.00
41250;BME280;26984;59.928;30.306;2023-07-29T04:38:14;100118.25;;;16.85;100.00
41250;BME280;26984;59.928;30.306;2023-07-29T04:40:42;100120.19;;;16.90;100.00
41250;BME280;26984;59.928;30.306;2023-07-29T04:43:09;100119.09;;;16.96;100.00
41250;BME280;26984;59.928;30.306;2023-07-29T04:45:43;100127.53;;;16.99;100.00
41250;BME280;26984;59.928;30.306;2023-07-29T04:48:11;100115.00;;;17.04;100.00
41250;BME280;26984;59.928;30.306;2023-07-29T04:50:39;100124.28;;;17.13;100.00
41250;BME280;26984;59.928;30.306;2023-07-29T04:53:07;100127.56;;;17.15;100.00
41250;BME280;26984;59.928;30.306;2023-07-29T04:55:35;100129.44;;;17.24;100.00
41250;BME280;26984;59.928;30.306;2023-07-29T04:58:03;100125.91;;;17.29;100.00
41250;BME280;26984;59.928;30.306;2023-07-29T05:00:31;100130.78;;;17.42;100.00
41250;BME280;26984;59.928;30.306;2023-07-29T05:03:01;100128.59;;;17.55;100.00
41250;BME280;26984;59.928;30.306;2023-07-29T05:05:29;100122.31;;;17.69;100.00
41250;BME280;26984;59.928;30.306;2023-07-29T05:07:57;100119.56;;;17.64;100.00
41250;BME280;26984;59.928;30.306;2023-07-29T05:10:26;100118.22;;;17.67;100.00
41250;BME280;26984;59.928;30.306;2023-07-29T05:12:57;100112.78;;;17.72;100.00
41250;BME280;26984;59.928;30.306;2023-07-29T05:15:24;100116.03;;;17.89;100.00
41250;BME280;26984;59.928;30.306;2023-07-29T05:17:53;100123.03;;;18.11;100.00
41250;BME280;26984;59.928;30.306;2023-07-29T05:20:22;100121.09;;;18.22;100.00
41250;BME280;26984;59.928;30.306;2023-07-29T05:22:52;100122.38;;;18.34;100.00
41250;BME280;26984;59.928;30.306;2023-07-29T05:25:20;100124.75;;;18.46;100.00
41250;BME280;26984;59.928;30.306;2023-07-29T05:27:47;100123.88;;;18.61;100.00
41250;BME280;26984;59.928;30.306;2023-07-29T05:30:15;100122.69;;;18.77;100.00
41250;BME280;26984;59.928;30.306;2023-07-29T05:32:43;100118.78;;;18.94;100.00
41250;BME280;26984;59.928;30.306;2023-07-29T05:35:10;100121.44;;;19.04;100.00
41250;BME280;26984;59.928;30.306;2023-07-29T05:37:40;100115.91;;;19.14;100.00
41250;BME280;26984;59.928;30.306;2023-07-29T05:40:08;100111.50;;;19.18;100.00
41250;BME280;26984;59.928;30.306;2023-07-29T05:42:36;100119.88;;;19.27;100.00
41250;BME280;26984;59.928;30.306;2023-07-29T05:45:05;100121.13;;;19.40;100.00
41250;BME280;26984;59.928;30.306;2023-07-29T05:47:32;100118.72;;;19.62;100.00
41250;BME280;26984;59.928;30.306;2023-07-29T05:50:00;100123.81;;;19.74;98.32
41250;BME280;26984;59.928;30.306;2023-07-29T05:52:31;100110.38;;;19.77;99.55
41250;BME280;26984;59.928;30.306;2023-07-29T05:55:01;100108.19;;;19.79;99.12
41250;BME280;26984;59.928;30.306;2023-07-29T05:57:29;100105.16;;;19.81;97.83
41250;BME280;26984;59.928;30.306;2023-07-29T05:59:56;100108.69;;;19.81;99.04
41250;BME280;26984;59.928;30.306;2023-07-29T06:02:24;100109.66;;;19.96;97.33
41250;BME280;26984;59.928;30.306;2023-07-29T06:04:52;100116.28;;;20.14;94.89
41250;BME280;26984;59.928;30.306;2023-07-29T06:07:19;100113.25;;;20.34;95.27
41250;BME280;26984;59.928;30.306;2023-07-29T06:09:47;100113.78;;;20.60;93.22
41250;BME280;26984;59.928;30.306;2023-07-29T06:12:16;100115.97;;;20.77;91.62
41250;BME280;26984;59.928;30.306;2023-07-29T06:14:43;100106.94;;;20.76;89.65
41250;BME280;26984;59.928;30.306;2023-07-29T06:17:11;100106.59;;;20.64;89.13
41250;BME280;26984;59.928;30.306;2023-07-29T06:19:38;100109.28;;;20.45;91.14
41250;BME280;26984;59.928;30.306;2023-07-29T06:22:06;100111.56;;;20.38;92.07
41250;BME280;26984;59.928;30.306;2023-07-29T06:24:33;100108.22;;;20.41;92.88
41250;BME280;26984;59.928;30.306;2023-07-29T06:27:01;100096.44;;;20.46;92.61
41250;BME280;26984;59.928;30.306;2023-07-29T06:29:30;100103.09;;;20.59;89.67
41250;BME280;26984;59.928;30.306;2023-07-29T06:31:58;100097.03;;;20.62;90.54
41250;BME280;26984;59.928;30.306;2023-07-29T06:34:26;100086.31;;;20.65;86.93
41250;BME280;26984;59.928;30.306;2023-07-29T06:36:54;100089.59;;;20.67;87.14
41250;BME280;26984;59.928;30.306;2023-07-29T06:39:22;100085.66;;;20.54;85.29
41250;BME280;26984;59.928;30.306;2023-07-29T06:41:51;100080.78;;;20.51;87.12
41250;BME280;26984;59.928;30.306;2023-07-29T06:44:20;100078.25;;;20.55;87.47
41250;BME280;26984;59.928;30.306;2023-07-29T06:46:49;100080.84;;;20.65;85.77
41250;BME280;26984;59.928;30.306;2023-07-29T06:49:17;100075.00;;;20.72;85.75
41250;BME280;26984;59.928;30.306;2023-07-29T06:51:44;100081.94;;;20.83;84.75
41250;BME280;26984;59.928;30.306;2023-07-29T06:54:12;100082.09;;;20.92;83.05
41250;BME280;26984;59.928;30.306;2023-07-29T06:56:39;100087.16;;;20.98;82.83
41250;BME280;26984;59.928;30.306;2023-07-29T06:59:11;100084.56;;;21.07;80.66
41250;BME280;26984;59.928;30.306;2023-07-29T07:01:39;100095.41;;;21.12;79.48
41250;BME280;26984;59.928;30.306;2023-07-29T07:04:08;100082.31;;;21.09;79.58
41250;BME280;26984;59.928;30.306;2023-07-29T07:06:36;100072.22;;;21.10;80.43
41250;BME280;26984;59.928;30.306;2023-07-29T07:09:03;100076.56;;;21.11;81.46
41250;BME280;26984;59.928;30.306;2023-07-29T07:11:33;100077.69;;;21.23;80.73
41250;BME280;26984;59.928;30.306;2023-07-29T07:14:01;100079.25;;;21.29;79.17
41250;BME280;26984;59.928;30.306;2023-07-29T07:16:28;100076.06;;;21.22;81.16
41250;BME280;26984;59.928;30.306;2023-07-29T07:18:57;100063.72;;;21.25;78.04
41250;BME280;26984;59.928;30.306;2023-07-29T07:21:26;100072.09;;;21.15;80.26
41250;BME280;26984;59.928;30.306;2023-07-29T07:23:55;100075.34;;;21.36;79.38
41250;BME280;26984;59.928;30.306;2023-07-29T07:26:25;100064.59;;;21.53;78.27
41250;BME280;26984;59.928;30.306;2023-07-29T07:28:53;100069.47;;;21.70;78.06
41250;BME280;26984;59.928;30.306;2023-07-29T07:31:20;100067.97;;;21.78;74.27
41250;BME280;26984;59.928;30.306;2023-07-29T07:33:48;100064.63;;;21.67;75.19
41250;BME280;26984;59.928;30.306;2023-07-29T07:36:16;100064.28;;;21.68;75.91
41250;BME280;26984;59.928;30.306;2023-07-29T07:38:45;100066.13;;;21.87;74.35
41250;BME280;26984;59.928;30.306;2023-07-29T07:41:13;100055.47;;;21.85;75.64
41250;BME280;26984;59.928;30.306;2023-07-29T07:43:40;100069.47;;;21.84;75.21
41250;BME280;26984;59.928;30.306;2023-07-29T07:46:08;100072.41;;;21.73;75.25
41250;BME280;26984;59.928;30.306;2023-07-29T07:48:36;100074.81;;;21.34;75.51
41250;BME280;26984;59.928;30.306;2023-07-29T07:51:09;100070.34;;;21.05;75.67
41250;BME280;26984;59.928;30.306;2023-07-29T07:53:37;100069.75;;;20.75;78.03
41250;BME280;26984;59.928;30.306;2023-07-29T07:56:06;100058.84;;;20.70;79.00
41250;BME280;26984;59.928;30.306;2023-07-29T07:58:34;100072.09;;;20.63;78.05
41250;BME280;26984;59.928;30.306;2023-07-29T08:01:02;100071.28;;;20.44;79.52
41250;BME280;26984;59.928;30.306;2023-07-29T08:03:30;100068.31;;;20.21;80.79
41250;BME280;26984;59.928;30.306;2023-07-29T08:05:57;100069.63;;;20.24;82.49
41250;BME280;26984;59.928;30.306;2023-07-29T08:08:25;100066.22;;;20.13;83.32
41250;BME280;26984;59.928;30.306;2023-07-29T08:10:53;100056.38;;;20.12;81.79
41250;BME280;26984;59.928;30.306;2023-07-29T08:13:22;100061.81;;;20.17;81.85
41250;BME280;26984;59.928;30.306;2023-07-29T08:15:51;100055.38;;;20.27;80.79
41250;BME280;26984;59.928;30.306;2023-07-29T08:18:19;100059.66;;;20.33;78.96
41250;BME280;26984;59.928;30.306;2023-07-29T08:20:53;100067.66;;;20.29;76.23
41250;BME280;26984;59.928;30.306;2023-07-29T08:23:21;100056.63;;;20.34;77.02
41250;BME280;26984;59.928;30.306;2023-07-29T08:25:52;100056.09;;;20.56;77.27
41250;BME280;26984;59.928;30.306;2023-07-29T08:28:23;100062.88;;;20.78;76.38
41250;BME280;26984;59.928;30.306;2023-07-29T08:30:50;100059.34;;;20.91;75.47
41250;BME280;26984;59.928;30.306;2023-07-29T08:33:18;100041.22;;;20.95;75.53
41250;BME280;26984;59.928;30.306;2023-07-29T08:35:45;100045.59;;;20.96;76.87
41250;BME280;26984;59.928;30.306;2023-07-29T08:38:13;100039.13;;;21.06;76.56
41250;BME280;26984;59.928;30.306;2023-07-29T08:40:42;100043.69;;;21.11;76.68
41250;BME280;26984;59.928;30.306;2023-07-29T08:43:12;100052.50;;;21.08;76.58
41250;BME280;26984;59.928;30.306;2023-07-29T08:45:43;100050.91;;;21.07;77.36
41250;BME280;26984;59.928;30.306;2023-07-29T08:48:11;100054.81;;;21.00;77.11
41250;BME280;26984;59.928;30.306;2023-07-29T08:50:39;100058.50;;;21.10;77.29
41250;BME280;26984;59.928;30.306;2023-07-29T08:53:08;100059.25;;;21.29;76.52
41250;BME280;26984;59.928;30.306;2023-07-29T08:55:37;100060.84;;;21.49;75.23
41250;BME280;26984;59.928;30.306;2023-07-29T08:58:10;100058.94;;;21.63;74.30
41250;BME280;26984;59.928;30.306;2023-07-29T09:00:50;100057.19;;;21.54;73.13
41250;BME280;26984;59.928;30.306;2023-07-29T09:03:31;100053.69;;;21.34;75.49
41250;BME280;26984;59.928;30.306;2023-07-29T09:06:00;100050.06;;;21.39;74.41
41250;BME280;26984;59.928;30.306;2023-07-29T09:08:33;100050.09;;;21.20;74.60
41250;BME280;26984;59.928;30.306;2023-07-29T09:11:01;100047.13;;;21.35;72.14
41250;BME280;26984;59.928;30.306;2023-07-29T09:13:30;100048.66;;;21.55;71.05
41250;BME280;26984;59.928;30.306;2023-07-29T09:16:00;100040.03;;;21.62;70.12
41250;BME280;26984;59.928;30.306;2023-07-29T09:18:28;100052.63;;;21.49;71.34
41250;BME280;26984;59.928;30.306;2023-07-29T09:20:56;100045.72;;;21.51;72.15
41250;BME280;26984;59.928;30.306;2023-07-29T09:23:27;100041.25;;;21.42;72.67
41250;BME280;26984;59.928;30.306;2023-07-29T09:26:00;100046.31;;;21.48;73.93
41250;BME280;26984;59.928;30.306;2023-07-29T09:28:32;100043.88;;;21.47;75.15
41250;BME280;26984;59.928;30.306;2023-07-29T09:31:02;100033.53;;;21.58;75.07
41250;BME280;26984;59.928;30.306;2023-07-29T09:33:30;100042.47;;;21.63;75.10
41250;BME280;26984;59.928;30.306;2023-07-29T09:36:01;100041.56;;;21.68;75.44
41250;BME280;26984;59.928;30.306;2023-07-29T09:38:30;100039.75;;;21.63;72.11
41250;BME280;26984;59.928;30.306;2023-07-29T09:41:05;100041.94;;;21.47;73.31
41250;BME280;26984;59.928;30.306;2023-07-29T09:43:35;100040.44;;;21.55;71.73
41250;BME280;26984;59.928;30.306;2023-07-29T09:46:04;100045.84;;;21.60;70.57
41250;BME280;26984;59.928;30.306;2023-07-29T09:48:33;100037.91;;;21.72;69.73
41250;BME280;26984;59.928;30.306;2023-07-29T09:54:09;100048.25;;;21.75;68.98
41250;BME280;26984;59.928;30.306;2023-07-29T09:56:52;100038.09;;;22.04;67.13
41250;BME280;26984;59.928;30.306;2023-07-29T09:59:19;100048.03;;;22.13;67.39
41250;BME280;26984;59.928;30.306;2023-07-29T10:01:53;100038.38;;;22.16;66.46
41250;BME280;26984;59.928;30.306;2023-07-29T10:04:20;100054.34;;;22.00;66.99
41250;BME280;26984;59.928;30.306;2023-07-29T10:06:51;100048.78;;;21.78;67.75
41250;BME280;26984;59.928;30.306;2023-07-29T10:09:22;100048.44;;;21.65;68.59
41250;BME280;26984;59.928;30.306;2023-07-29T10:14:44;100060.44;;;21.83;69.07
41250;BME280;26984;59.928;30.306;2023-07-29T10:17:20;100050.88;;;22.08;68.87
41250;BME280;26984;59.928;30.306;2023-07-29T10:19:49;100058.66;;;22.42;67.69
41250;BME280;26984;59.928;30.306;2023-07-29T10:22:28;100061.88;;;22.81;67.13
41250;BME280;26984;59.928;30.306;2023-07-29T10:24:56;100055.00;;;23.14;66.33
41250;BME280;26984;59.928;30.306;2023-07-29T10:27:26;100056.53;;;22.62;67.03
41250;BME280;26984;59.928;30.306;2023-07-29T10:29:56;100056.47;;;22.17;69.04
41250;BME280;26984;59.928;30.306;2023-07-29T10:32:26;100059.63;;;21.96;70.65
41250;BME280;26984;59.928;30.306;2023-07-29T10:34:53;100056.47;;;21.89;71.73
41250;BME280;26984;59.928;30.306;2023-07-29T10:37:22;100048.34;;;21.84;72.13
41250;BME280;26984;59.928;30.306;2023-07-29T10:39:54;100046.25;;;21.67;73.61
41250;BME280;26984;59.928;30.306;2023-07-29T10:42:22;100052.41;;;21.73;72.82
41250;BME280;26984;59.928;30.306;2023-07-29T10:44:50;100045.84;;;21.74;72.98
41250;BME280;26984;59.928;30.306;2023-07-29T10:47:20;100046.63;;;22.02;72.81
41250;BME280;26984;59.928;30.306;2023-07-29T10:49:49;100038.88;;;22.04;71.56
41250;BME280;26984;59.928;30.306;2023-07-29T10:52:27;100045.31;;;21.99;73.53
41250;BME280;26984;59.928;30.306;2023-07-29T10:55:06;100040.59;;;22.14;72.42
41250;BME280;26984;59.928;30.306;2023-07-29T10:57:52;100041.44;;;22.51;70.51
41250;BME280;26984;59.928;30.306;2023-07-29T11:00:19;100037.09;;;22.50;69.71
41250;BME280;26984;59.928;30.306;2023-07-29T11:02:56;100034.75;;;22.43;70.23
41250;BME280;26984;59.928;30.306;2023-07-29T11:05:25;100036.75;;;22.51;70.23
41250;BME280;26984;59.928;30.306;2023-07-29T11:07:53;100036.63;;;22.92;67.88
41250;BME280;26984;59.928;30.306;2023-07-29T11:10:21;100043.00;;;23.02;65.89
41250;BME280;26984;59.928;30.306;2023-07-29T11:12:48;100036.00;;;22.96;63.92
41250;BME280;26984;59.928;30.306;2023-07-29T11:15:19;100039.25;;;22.84;63.55
41250;BME280;26984;59.928;30.306;2023-07-29T11:17:49;100044.13;;;22.64;62.67
41250;BME280;26984;59.928;30.306;2023-07-29T11:20:20;100038.03;;;22.67;62.32
41250;BME280;26984;59.928;30.306;2023-07-29T11:22:49;100036.28;;;22.71;61.99
41250;BME280;26984;59.928;30.306;2023-07-29T11:25:17;100019.94;;;22.89;60.60
41250;BME280;26984;59.928;30.306;2023-07-29T11:27:45;100023.78;;;22.65;60.07
41250;BME280;26984;59.928;30.306;2023-07-29T11:30:13;100033.72;;;22.53;61.14
41250;BME280;26984;59.928;30.306;2023-07-29T11:32:41;100033.03;;;22.69;60.17
41250;BME280;26984;59.928;30.306;2023-07-29T11:35:10;100023.59;;;22.62;59.92
41250;BME280;26984;59.928;30.306;2023-07-29T11:37:39;100028.69;;;22.32;61.97
41250;BME280;26984;59.928;30.306;2023-07-29T11:40:08;100033.34;;;22.45;62.83
41250;BME280;26984;59.928;30.306;2023-07-29T11:42:37;100027.44;;;22.52;61.99
41250;BME280;26984;59.928;30.306;2023-07-29T11:45:05;100026.91;;;22.73;63.27
41250;BME280;26984;59.928;30.306;2023-07-29T11:47:33;100021.31;;;23.00;61.29
41250;BME280;26984;59.928;30.306;2023-07-29T11:50:03;100026.38;;;23.38;60.75
41250;BME280;26984;59.928;30.306;2023-07-29T11:52:31;100024.69;;;23.28;56.99
41250;BME280;26984;59.928;30.306;2023-07-29T11:54:59;100026.03;;;22.86;57.35
41250;BME280;26984;59.928;30.306;2023-07-29T11:57:28;100017.31;;;22.61;58.32
41250;BME280;26984;59.928;30.306;2023-07-29T11:59:56;100018.13;;;22.62;58.72
41250;BME280;26984;59.928;30.306;2023-07-29T12:02:24;100016.81;;;22.59;57.54
41250;BME280;26984;59.928;30.306;2023-07-29T12:04:52;100032.34;;;22.41;57.51
41250;BME280;26984;59.928;30.306;2023-07-29T12:07:20;100023.41;;;22.36;57.83
41250;BME280;26984;59.928;30.306;2023-07-29T12:09:48;100033.38;;;22.32;58.01
41250;BME280;26984;59.928;30.306;2023-07-29T12:12:16;100038.28;;;22.21;58.77
41250;BME280;26984;59.928;30.306;2023-07-29T12:14:45;100047.13;;;21.76;63.56
41250;BME280;26984;59.928;30.306;2023-07-29T12:17:13;100039.75;;;21.31;69.25
41250;BME280;26984;59.928;30.306;2023-07-29T12:19:41;100044.28;;;21.08;68.97
41250;BME280;26984;59.928;30.306;2023-07-29T12:22:09;100037.91;;;21.12;70.34
41250;BME280;26984;59.928;30.306;2023-07-29T12:24:38;100042.72;;;21.20;72.50
41250;BME280;26984;59.928;30.306;2023-07-29T12:27:10;100041.78;;;21.25;71.73
41250;BME280;26984;59.928;30.306;2023-07-29T12:29:39;100051.75;;;21.21;68.11
41250;BME280;26984;59.928;30.306;2023-07-29T12:32:09;100050.03;;;21.25;66.24
41250;BME280;26984;59.928;30.306;2023-07-29T12:34:37;100039.88;;;21.25;65.53
41250;BME280;26984;59.928;30.306;2023-07-29T12:37:05;100040.28;;;21.33;65.56
41250;BME280;26984;59.928;30.306;2023-07-29T12:39:34;100039.75;;;21.31;67.03
41250;BME280;26984;59.928;30.306;2023-07-29T12:42:02;100045.41;;;21.39;67.33
41250;BME280;26984;59.928;30.306;2023-07-29T12:44:30;100034.34;;;21.44;67.77
41250;BME280;26984;59.928;30.306;2023-07-29T12:46:59;100042.56;;;21.58;67.89
41250;BME280;26984;59.928;30.306;2023-07-29T12:49:28;100041.16;;;21.74;67.96
41250;BME280;26984;59.928;30.306;2023-07-29T12:51:55;100043.47;;;21.95;67.21